Time;durP1;ratioP1;P1;durP2;ratioP2;P2;SDS_P1;SDS_P2;PMS_P1;PMS_P2;Temp;Humidity;BMP_temperature;BMP_pressure;BME280_temperature;BME280_humidity;BME280_pressure;Samples;Min_cycle;Max_cycle;Signal;HPM_P1;HPM_P2
2021/12/19 00:00:09;;;;;;;151.13;36.92;;;;;;;;;;5030835;28;20013;-87
2021/12/19 00:10:36;;;;;;;149.90;35.70;;;;;;;;;;5048597;28;20123;-85
2021/12/19 00:13:02;;;;;;;148.90;38.75;;;;;;;;;;5031459;28;20107;-86
2021/12/19 00:15:27;;;;;;;144.57;39.20;;;;;;;;;;5030879;28;20029;-86
2021/12/19 00:17:52;;;;;;;156.57;39.42;;;;;;;;;;5048643;28;20024;-86
2021/12/19 00:20:18;;;;;;;148.88;36.15;;;;;;;;;;5030914;28;20114;-86
2021/12/19 00:22:43;;;;;;;155.07;37.63;;;;;;;;;;5031089;28;20516;-86
2021/12/19 00:25:08;;;;;;;134.07;35.15;;;;;;;;;;5049371;28;20021;-86
2021/12/19 00:27:33;;;;;;;150.63;38.92;;;;;;;;;;5031010;28;20028;-86
2021/12/19 00:29:59;;;;;;;141.45;36.30;;;;;;;;;;5031354;28;20698;-86
2021/12/19 00:32:24;;;;;;;150.32;37.08;;;;;;;;;;5030963;28;20024;-85
2021/12/19 00:34:51;;;;;;;145.35;38.08;;;;;;;;;;5050992;23;20037;-65
2021/12/19 00:37:17;;;;;;;154.10;36.45;;;;;;;;;;5049229;28;20017;-65
2021/12/19 00:39:42;;;;;;;150.30;35.67;;;;;;;;;;5030103;28;20109;-65
2021/12/19 00:42:08;;;;;;;154.27;38.47;;;;;;;;;;5034359;28;20107;-65
2021/12/19 00:44:35;;;;;;;158.18;38.55;;;;;;;;;;5049452;28;20473;-65
2021/12/19 00:47:07;;;;;;;158.23;42.53;;;;;;;;;;5050054;28;20025;-66
2021/12/19 00:49:33;;;;;;;149.05;36.05;;;;;;;;;;5049844;28;20021;-65
2021/12/19 00:51:58;;;;;;;133.55;33.90;;;;;;;;;;5049738;28;20082;-65
2021/12/19 00:54:23;;;;;;;131.00;34.42;;;;;;;;;;5049574;28;20024;-65
2021/12/19 00:56:49;;;;;;;152.17;34.57;;;;;;;;;;5035527;28;20028;-65
2021/12/19 00:59:15;;;;;;;138.63;35.08;;;;;;;;;;5053700;28;20320;-65
2021/12/19 01:01:40;;;;;;;157.20;37.72;;;;;;;;;;5053608;28;20013;-65
2021/12/19 01:04:09;;;;;;;155.68;38.08;;;;;;;;;;5053659;28;20422;-65
2021/12/19 01:06:34;;;;;;;124.28;34.17;;;;;;;;;;5053426;28;20024;-65
2021/12/19 01:08:59;;;;;;;128.30;32.97;;;;;;;;;;5053566;28;20519;-66
2021/12/19 01:11:25;;;;;;;139.48;35.05;;;;;;;;;;5051814;28;20033;-65
2021/12/19 01:13:50;;;;;;;136.77;35.65;;;;;;;;;;5052306;28;20461;-65
2021/12/19 01:16:15;;;;;;;146.05;35.53;;;;;;;;;;5052874;28;20013;-66
2021/12/19 01:18:41;;;;;;;129.50;34.00;;;;;;;;;;5053299;28;20056;-65
2021/12/19 01:21:06;;;;;;;131.20;32.50;;;;;;;;;;5052850;28;20013;-65
2021/12/19 01:23:31;;;;;;;130.35;33.85;;;;;;;;;;5053082;28;20067;-65
2021/12/19 01:25:56;;;;;;;116.90;30.90;;;;;;;;;;5053098;28;20075;-66
2021/12/19 01:28:22;;;;;;;122.57;32.85;;;;;;;;;;5052525;28;20392;-66
2021/12/19 01:30:47;;;;;;;117.07;31.52;;;;;;;;;;5052728;28;20021;-65
2021/12/19 01:33:12;;;;;;;116.75;32.22;;;;;;;;;;5052687;28;20029;-65
2021/12/19 01:35:37;;;;;;;111.65;31.98;;;;;;;;;;5052936;28;20032;-65
2021/12/19 01:38:03;;;;;;;117.35;29.88;;;;;;;;;;5053049;28;20052;-65
2021/12/19 01:40:28;;;;;;;128.80;32.28;;;;;;;;;;5052501;28;20028;-65
2021/12/19 01:42:54;;;;;;;114.55;34.17;;;;;;;;;;5053116;28;20021;-65
2021/12/19 01:45:28;;;;;;;142.15;35.13;;;;;;;;;;5052397;28;20017;-64
2021/12/19 01:47:54;;;;;;;122.68;31.30;;;;;;;;;;5052789;28;20032;-65
2021/12/19 01:50:19;;;;;;;119.03;31.35;;;;;;;;;;5052315;28;20033;-65
2021/12/19 01:52:45;;;;;;;134.80;32.95;;;;;;;;;;5052786;28;20111;-65
2021/12/19 01:55:11;;;;;;;110.32;30.33;;;;;;;;;;5052312;28;20052;-65
2021/12/19 01:57:36;;;;;;;108.53;31.63;;;;;;;;;;5052638;28;20017;-65
2021/12/19 02:00:04;;;;;;;119.90;32.83;;;;;;;;;;5052676;28;20021;-65
2021/12/19 02:02:29;;;;;;;101.55;27.33;;;;;;;;;;5051837;28;20068;-65
2021/12/19 02:04:54;;;;;;;98.43;30.13;;;;;;;;;;5052357;28;20588;-65
2021/12/19 02:07:19;;;;;;;102.75;29.85;;;;;;;;;;5051323;28;20032;-65
2021/12/19 02:09:45;;;;;;;104.00;28.57;;;;;;;;;;5052345;28;20056;-65
2021/12/19 02:12:11;;;;;;;99.07;28.00;;;;;;;;;;5051981;28;20276;-65
2021/12/19 02:14:36;;;;;;;102.13;29.88;;;;;;;;;;5052310;28;20013;-65
2021/12/19 02:17:02;;;;;;;96.90;27.88;;;;;;;;;;5052272;28;20386;-65
2021/12/19 02:19:29;;;;;;;98.68;27.02;;;;;;;;;;5051503;28;20025;-65
2021/12/19 02:21:54;;;;;;;106.43;27.30;;;;;;;;;;5051850;28;20485;-65
2021/12/19 02:24:19;;;;;;;99.88;28.77;;;;;;;;;;5051780;28;20078;-65
2021/12/19 02:26:44;;;;;;;92.47;28.37;;;;;;;;;;5052166;28;20032;-65
2021/12/19 02:29:10;;;;;;;90.18;26.55;;;;;;;;;;5051790;28;20756;-65
2021/12/19 02:31:36;;;;;;;108.60;31.85;;;;;;;;;;5051793;28;20426;-65
2021/12/19 02:34:14;;;;;;;92.13;27.25;;;;;;;;;;5051099;28;20024;-65
2021/12/19 02:36:55;;;;;;;97.03;28.50;;;;;;;;;;5050425;28;20025;-65
2021/12/19 02:50:10;;;;;;;75.85;23.20;;;;;;;;;;5050918;28;19915;-65
2021/12/19 02:52:35;;;;;;;79.68;24.45;;;;;;;;;;5033465;28;20124;-65
2021/12/19 02:55:01;;;;;;;76.15;22.90;;;;;;;;;;5051267;28;20092;-65
2021/12/19 02:57:26;;;;;;;78.47;24.77;;;;;;;;;;5051410;28;20025;-65
2021/12/19 02:59:51;;;;;;;66.25;22.23;;;;;;;;;;5051387;28;20017;-65
2021/12/19 03:02:17;;;;;;;65.32;20.17;;;;;;;;;;5050842;28;20440;-65
2021/12/19 03:04:57;;;;;;;67.82;22.52;;;;;;;;;;5051307;28;20092;-65
2021/12/19 03:07:24;;;;;;;67.43;21.45;;;;;;;;;;5051089;28;20370;-65
2021/12/19 03:18:00;;;;;;;65.85;20.30;;;;;;;;;;5051269;28;20024;-65
2021/12/19 03:20:30;;;;;;;69.38;21.20;;;;;;;;;;5049659;28;20048;-65
2021/12/19 03:22:56;;;;;;;63.25;20.02;;;;;;;;;;5050946;28;20060;-65
2021/12/19 03:25:21;;;;;;;63.92;21.30;;;;;;;;;;5050680;28;20048;-65
2021/12/19 03:27:46;;;;;;;63.72;19.65;;;;;;;;;;5050822;28;20024;-65
2021/12/19 03:30:11;;;;;;;61.78;19.48;;;;;;;;;;5050348;28;20425;-65
2021/12/19 03:32:37;;;;;;;63.08;20.88;;;;;;;;;;5050843;28;20449;-65
2021/12/19 03:35:02;;;;;;;72.38;20.92;;;;;;;;;;5050156;28;20024;-65
2021/12/19 03:37:28;;;;;;;67.43;20.98;;;;;;;;;;5050057;28;20468;-65
2021/12/19 03:40:06;;;;;;;64.28;20.15;;;;;;;;;;5049857;28;20063;-65
2021/12/19 03:42:31;;;;;;;68.40;20.27;;;;;;;;;;5049880;28;20037;-65
2021/12/19 03:44:57;;;;;;;58.13;21.13;;;;;;;;;;5049670;28;20060;-65
2021/12/19 03:47:22;;;;;;;67.63;22.88;;;;;;;;;;5049995;28;20024;-65
2021/12/19 03:49:47;;;;;;;67.80;20.85;;;;;;;;;;5049833;28;20104;-65
2021/12/19 03:52:13;;;;;;;72.45;22.90;;;;;;;;;;5048490;28;20036;-65
2021/12/19 03:54:38;;;;;;;67.03;18.60;;;;;;;;;;5048485;28;20017;-65
2021/12/19 03:57:04;;;;;;;67.05;20.88;;;;;;;;;;5049281;28;20031;-65
2021/12/19 03:59:31;;;;;;;75.50;22.92;;;;;;;;;;5049462;28;20092;-65
2021/12/19 04:01:56;;;;;;;69.00;21.23;;;;;;;;;;5049091;28;20017;-65
2021/12/19 04:04:21;;;;;;;62.83;21.58;;;;;;;;;;5049325;28;20339;-65
2021/12/19 04:06:46;;;;;;;76.65;22.52;;;;;;;;;;5049646;28;20020;-65
2021/12/19 04:09:11;;;;;;;75.00;21.73;;;;;;;;;;5049092;28;20032;-65
2021/12/19 04:11:37;;;;;;;59.15;18.48;;;;;;;;;;5048608;28;20428;-65
2021/12/19 04:14:02;;;;;;;62.28;20.88;;;;;;;;;;5049423;28;20106;-65
2021/12/19 04:16:27;;;;;;;72.78;19.55;;;;;;;;;;5049298;28;20114;-65
2021/12/19 04:18:52;;;;;;;71.18;20.48;;;;;;;;;;5049378;28;20473;-65
2021/12/19 04:21:18;;;;;;;65.55;20.92;;;;;;;;;;5049059;28;20412;-65
2021/12/19 04:23:43;;;;;;;68.63;21.83;;;;;;;;;;5048341;28;20031;-65
2021/12/19 04:26:08;;;;;;;75.35;21.63;;;;;;;;;;5049166;28;20215;-65
2021/12/19 04:28:33;;;;;;;71.57;20.27;;;;;;;;;;5049314;28;20025;-65
2021/12/19 04:31:00;;;;;;;75.97;24.27;;;;;;;;;;5051075;28;20020;-65
2021/12/19 04:33:27;;;;;;;67.53;20.02;;;;;;;;;;5052049;28;20549;-65
2021/12/19 04:35:59;;;;;;;72.97;21.00;;;;;;;;;;5016814;28;1045526;-65
2021/12/19 05:00:05;;;;;;;57.25;17.95;;;;;;;;;;5053554;28;20094;-65
2021/12/19 05:16:01;;;;;;;53.67;18.60;;;;;;;;;;5053971;28;20440;-66
2021/12/19 05:18:29;;;;;;;43.28;15.63;;;;;;;;;;5053514;28;20013;-66
2021/12/19 05:21:02;;;;;;;41.53;15.55;;;;;;;;;;5053234;28;20033;-66
2021/12/19 05:23:39;;;;;;;43.75;15.48;;;;;;;;;;5053123;28;20021;-66
2021/12/19 05:26:04;;;;;;;52.28;19.35;;;;;;;;;;5053211;28;20096;-66
2021/12/19 05:28:30;;;;;;;48.42;16.00;;;;;;;;;;5052647;28;20533;-66
2021/12/19 05:30:56;;;;;;;44.95;15.55;;;;;;;;;;5052850;28;20100;-66
2021/12/19 05:33:21;;;;;;;43.20;16.42;;;;;;;;;;5052868;28;20504;-66
2021/12/19 05:44:08;;;;;;;44.15;15.50;;;;;;;;;;5052584;28;20029;-66
2021/12/19 05:47:01;;;;;;;39.88;14.52;;;;;;;;;;5032984;28;20028;-66
2021/12/19 05:49:27;;;;;;;41.40;14.57;;;;;;;;;;5032757;28;20014;-66
2021/12/19 05:51:52;;;;;;;44.00;14.73;;;;;;;;;;5032345;28;20025;-66
2021/12/19 05:54:18;;;;;;;36.45;14.02;;;;;;;;;;5032635;28;20044;-66
2021/12/19 05:56:43;;;;;;;50.30;15.05;;;;;;;;;;5032744;28;20021;-66
2021/12/19 05:59:08;;;;;;;45.60;15.18;;;;;;;;;;5032802;28;20092;-66
2021/12/19 06:01:34;;;;;;;42.80;14.90;;;;;;;;;;5039455;28;20547;-66
2021/12/19 06:03:59;;;;;;;43.13;15.00;;;;;;;;;;5052575;28;20021;-66
2021/12/19 06:06:27;;;;;;;58.35;17.30;;;;;;;;;;5052268;28;20025;-66
2021/12/19 06:08:53;;;;;;;49.70;17.33;;;;;;;;;;5052408;28;20200;-66
2021/12/19 06:11:18;;;;;;;46.22;15.73;;;;;;;;;;5051930;28;20110;-66
2021/12/19 06:13:43;;;;;;;44.30;15.50;;;;;;;;;;5052140;28;20021;-66
2021/12/19 06:16:09;;;;;;;40.42;15.15;;;;;;;;;;5052251;28;20013;-66
2021/12/19 06:18:34;;;;;;;45.55;15.48;;;;;;;;;;5051718;28;20116;-66
2021/12/19 06:20:59;;;;;;;42.17;15.60;;;;;;;;;;5052243;28;20021;-66
2021/12/19 06:23:25;;;;;;;43.22;16.13;;;;;;;;;;5051998;28;20098;-66
2021/12/19 06:25:50;;;;;;;40.60;14.23;;;;;;;;;;5051824;28;20429;-66
2021/12/19 06:28:16;;;;;;;41.90;15.55;;;;;;;;;;5051991;28;20270;-66
2021/12/19 06:30:42;;;;;;;43.55;16.13;;;;;;;;;;5051845;28;20048;-66
2021/12/19 06:33:07;;;;;;;43.75;14.65;;;;;;;;;;5052149;28;20029;-66
2021/12/19 06:35:32;;;;;;;43.63;17.20;;;;;;;;;;5049417;28;20484;-66
2021/12/19 06:37:57;;;;;;;48.88;16.52;;;;;;;;;;5051933;28;20414;-66
2021/12/19 06:40:23;;;;;;;47.35;15.40;;;;;;;;;;5051636;28;20017;-66
2021/12/19 06:42:48;;;;;;;40.67;14.50;;;;;;;;;;5051876;28;20353;-66
2021/12/19 06:45:14;;;;;;;44.65;16.08;;;;;;;;;;5052103;28;20036;-66
2021/12/19 06:47:40;;;;;;;35.78;13.50;;;;;;;;;;5051933;28;20082;-66
2021/12/19 06:50:05;;;;;;;48.40;16.75;;;;;;;;;;5051141;28;20084;-66
2021/12/19 06:52:31;;;;;;;46.60;17.27;;;;;;;;;;5050731;28;20028;-66
2021/12/19 06:54:56;;;;;;;43.75;16.40;;;;;;;;;;5051395;28;20023;-66
2021/12/19 06:57:21;;;;;;;47.55;16.83;;;;;;;;;;5051630;28;20025;-66
2021/12/19 06:59:47;;;;;;;48.63;18.27;;;;;;;;;;5051409;28;20539;-66
2021/12/19 07:02:14;;;;;;;41.67;15.80;;;;;;;;;;5051358;28;20643;-66
2021/12/19 07:04:40;;;;;;;47.75;16.90;;;;;;;;;;5050565;28;20108;-66
2021/12/19 07:07:05;;;;;;;47.40;17.33;;;;;;;;;;5051345;28;20179;-66
2021/12/19 07:09:30;;;;;;;47.63;16.48;;;;;;;;;;5051346;28;20029;-66
2021/12/19 07:11:55;;;;;;;51.10;15.35;;;;;;;;;;5051005;28;20104;-66
2021/12/19 07:14:21;;;;;;;49.08;17.60;;;;;;;;;;5051300;28;20013;-66
2021/12/19 07:16:46;;;;;;;47.33;16.15;;;;;;;;;;5051244;28;20021;-66
2021/12/19 07:19:11;;;;;;;51.03;17.02;;;;;;;;;;5051045;28;20504;-66
2021/12/19 07:21:36;;;;;;;51.20;15.32;;;;;;;;;;5050493;28;20049;-66
2021/12/19 07:24:01;;;;;;;52.93;15.53;;;;;;;;;;5050748;28;20036;-66
2021/12/19 07:26:27;;;;;;;47.17;15.73;;;;;;;;;;5051108;28;20278;-66
2021/12/19 07:28:52;;;;;;;47.70;14.40;;;;;;;;;;5051310;28;20036;-66
2021/12/19 07:31:17;;;;;;;55.97;16.02;;;;;;;;;;5050859;28;20043;-66
2021/12/19 07:33:44;;;;;;;46.50;15.15;;;;;;;;;;5050851;28;20029;-66
2021/12/19 07:36:10;;;;;;;52.42;16.83;;;;;;;;;;5050853;28;20024;-66
2021/12/19 07:38:47;;;;;;;48.80;15.88;;;;;;;;;;5050557;28;20032;-66
2021/12/19 07:41:12;;;;;;;49.20;15.70;;;;;;;;;;5050521;28;20017;-66
2021/12/19 07:43:37;;;;;;;47.30;15.82;;;;;;;;;;5050667;28;20016;-66
2021/12/19 07:46:03;;;;;;;47.40;16.73;;;;;;;;;;5050689;28;20082;-66
2021/12/19 07:48:28;;;;;;;54.70;16.63;;;;;;;;;;5050445;28;20013;-66
2021/12/19 07:50:54;;;;;;;53.50;15.80;;;;;;;;;;5050333;28;20036;-66
2021/12/19 07:53:19;;;;;;;52.83;16.98;;;;;;;;;;5050310;28;20287;-66
2021/12/19 07:55:44;;;;;;;56.28;17.65;;;;;;;;;;5050437;28;20082;-66
2021/12/19 07:58:10;;;;;;;49.40;15.85;;;;;;;;;;5050782;28;20024;-66
2021/12/19 08:00:35;;;;;;;54.42;15.52;;;;;;;;;;5050275;28;20681;-66
2021/12/19 08:03:00;;;;;;;52.78;14.93;;;;;;;;;;5050508;28;20377;-66
2021/12/19 08:05:26;;;;;;;49.53;15.13;;;;;;;;;;5049497;28;20021;-66
2021/12/19 08:07:56;;;;;;;44.25;14.90;;;;;;;;;;5050389;28;20338;-66
2021/12/19 08:12:48;;;;;;;50.97;15.90;;;;;;;;;;5048941;28;20036;-65
2021/12/19 08:15:15;;;;;;;48.75;16.58;;;;;;;;;;5050229;28;20021;-65
2021/12/19 08:17:40;;;;;;;54.80;16.15;;;;;;;;;;5049852;28;20045;-65
2021/12/19 08:20:09;;;;;;;44.85;15.63;;;;;;;;;;5050026;28;20059;-65
2021/12/19 08:22:34;;;;;;;46.80;17.48;;;;;;;;;;5050017;28;20056;-65
2021/12/19 08:25:00;;;;;;;37.90;14.65;;;;;;;;;;5050043;28;20056;-65
2021/12/19 08:27:26;;;;;;;46.20;14.00;;;;;;;;;;5050441;28;20036;-65
2021/12/19 08:29:55;;;;;;;42.55;13.50;;;;;;;;;;5050444;28;20033;-65
2021/12/19 08:32:23;;;;;;;46.50;13.93;;;;;;;;;;5050041;28;20079;-65
2021/12/19 08:34:49;;;;;;;35.50;11.75;;;;;;;;;;5049961;28;20040;-65
2021/12/19 08:37:15;;;;;;;32.47;11.65;;;;;;;;;;5050371;28;20017;-65
2021/12/19 08:39:41;;;;;;;32.83;11.00;;;;;;;;;;5050054;28;20013;-65
2021/12/19 08:42:07;;;;;;;35.70;12.00;;;;;;;;;;5049695;28;20040;-65
2021/12/19 08:44:32;;;;;;;27.77;9.85;;;;;;;;;;5049897;28;20557;-65
2021/12/19 08:46:58;;;;;;;28.83;9.68;;;;;;;;;;5049986;28;20025;-65
2021/12/19 08:49:23;;;;;;;19.95;8.10;;;;;;;;;;5050152;28;20031;-65
2021/12/19 08:51:48;;;;;;;18.05;7.60;;;;;;;;;;5049255;28;20033;-66
2021/12/19 08:54:13;;;;;;;17.60;7.32;;;;;;;;;;5032272;28;20013;-66
2021/12/19 08:56:39;;;;;;;13.75;6.20;;;;;;;;;;5049795;28;20009;-66
2021/12/19 08:59:04;;;;;;;20.30;8.38;;;;;;;;;;5049706;28;20021;-66
2021/12/19 09:01:31;;;;;;;20.08;7.85;;;;;;;;;;5049636;28;20017;-66
2021/12/19 09:03:56;;;;;;;15.98;6.07;;;;;;;;;;5049932;28;20017;-66
2021/12/19 09:06:21;;;;;;;17.45;6.03;;;;;;;;;;5049874;28;20027;-66
2021/12/19 09:08:47;;;;;;;11.00;5.63;;;;;;;;;;5049845;28;20385;-66
2021/12/19 09:11:12;;;;;;;13.00;4.90;;;;;;;;;;5049644;28;20489;-66
2021/12/19 09:13:38;;;;;;;14.63;5.25;;;;;;;;;;5049522;28;20108;-66
2021/12/19 09:16:03;;;;;;;13.38;5.55;;;;;;;;;;5050703;28;20082;-65
2021/12/19 09:18:28;;;;;;;12.35;4.80;;;;;;;;;;5053575;28;20469;-65
2021/12/19 09:20:54;;;;;;;12.75;5.75;;;;;;;;;;5053105;28;20017;-66
2021/12/19 09:23:19;;;;;;;13.93;4.57;;;;;;;;;;5053386;28;20020;-67
2021/12/19 09:25:44;;;;;;;11.75;4.80;;;;;;;;;;5053119;28;20147;-68
2021/12/19 09:28:10;;;;;;;16.00;7.05;;;;;;;;;;5053386;28;20032;-65
2021/12/19 09:30:35;;;;;;;18.08;5.88;;;;;;;;;;5052656;28;20100;-65
2021/12/19 09:33:00;;;;;;;22.25;6.28;;;;;;;;;;5053084;28;20408;-65
2021/12/19 09:35:25;;;;;;;17.83;5.30;;;;;;;;;;5053002;28;20056;-66
2021/12/19 09:37:51;;;;;;;16.58;6.47;;;;;;;;;;5052960;28;20085;-66
2021/12/19 09:40:20;;;;;;;16.65;5.57;;;;;;;;;;5052272;28;20074;-66
2021/12/19 09:42:49;;;;;;;17.73;5.95;;;;;;;;;;5043916;28;20496;-66
2021/12/19 09:45:14;;;;;;;15.80;5.30;;;;;;;;;;5033039;28;20365;-66
2021/12/19 09:47:40;;;;;;;18.42;7.55;;;;;;;;;;5048076;28;20178;-66
2021/12/19 09:50:07;;;;;;;17.33;8.18;;;;;;;;;;5059372;28;20051;-65
2021/12/19 09:52:32;;;;;;;16.08;6.30;;;;;;;;;;5072572;28;20385;-65
2021/12/19 09:54:57;;;;;;;19.90;7.07;;;;;;;;;;5066719;28;20021;-65
2021/12/19 09:57:23;;;;;;;17.23;7.70;;;;;;;;;;5073060;28;20565;-65
2021/12/19 09:59:48;;;;;;;16.63;6.63;;;;;;;;;;5073142;28;20028;-66
2021/12/19 10:02:15;;;;;;;20.63;6.03;;;;;;;;;;5054939;28;20021;-67
2021/12/19 10:04:41;;;;;;;21.25;6.80;;;;;;;;;;5032591;28;20022;-67
2021/12/19 10:07:08;;;;;;;15.57;6.43;;;;;;;;;;5032510;28;20389;-66
2021/12/19 10:09:36;;;;;;;16.50;6.32;;;;;;;;;;5032503;28;20089;-66
2021/12/19 10:12:24;;;;;;;14.93;5.65;;;;;;;;;;5032180;28;20044;-66
2021/12/19 10:14:51;;;;;;;14.63;5.80;;;;;;;;;;5032230;28;20022;-66
2021/12/19 10:17:17;;;;;;;11.75;4.97;;;;;;;;;;5050373;28;20029;-66
2021/12/19 10:19:44;;;;;;;11.63;5.03;;;;;;;;;;5051602;28;20076;-66
2021/12/19 10:22:29;;;;;;;10.18;4.35;;;;;;;;;;5051784;28;20021;-65
2021/12/19 10:24:56;;;;;;;13.50;4.43;;;;;;;;;;5045049;28;20120;-65
2021/12/19 10:27:34;;;;;;;10.70;4.45;;;;;;;;;;5051517;28;20096;-65
2021/12/19 10:29:59;;;;;;;8.73;4.13;;;;;;;;;;5051835;28;20013;-65
2021/12/19 10:32:25;;;;;;;9.77;5.10;;;;;;;;;;5051682;28;20078;-65
2021/12/19 10:34:50;;;;;;;10.97;4.43;;;;;;;;;;5051586;28;20082;-66
2021/12/19 10:37:34;;;;;;;10.55;5.40;;;;;;;;;;5033923;28;20278;-67
2021/12/19 10:40:01;;;;;;;13.82;5.05;;;;;;;;;;5051576;28;20087;-67
2021/12/19 10:42:26;;;;;;;13.80;5.05;;;;;;;;;;5051543;28;20025;-65
2021/12/19 10:47:35;;;;;;;16.60;5.85;;;;;;;;;;5051549;28;20071;-65
2021/12/19 10:50:01;;;;;;;12.07;5.80;;;;;;;;;;5051262;28;20057;-66
2021/12/19 10:52:33;;;;;;;16.95;5.88;;;;;;;;;;5051345;28;20060;-66
2021/12/19 10:55:00;;;;;;;12.73;6.00;;;;;;;;;;5051405;28;20028;-66
2021/12/19 10:57:33;;;;;;;16.33;7.43;;;;;;;;;;5051465;28;20093;-66
2021/12/19 10:59:59;;;;;;;15.65;6.07;;;;;;;;;;5051551;28;20023;-66
2021/12/19 11:02:38;;;;;;;10.02;5.30;;;;;;;;;;5051471;28;20103;-66
2021/12/19 11:05:03;;;;;;;15.30;6.20;;;;;;;;;;5051519;28;20096;-65
2021/12/19 11:07:28;;;;;;;12.82;6.22;;;;;;;;;;5051650;28;20414;-65
2021/12/19 11:09:53;;;;;;;11.75;6.88;;;;;;;;;;5051195;28;20052;-65
2021/12/19 11:12:18;;;;;;;18.65;5.55;;;;;;;;;;5050947;28;20513;-65
2021/12/19 11:14:45;;;;;;;17.48;6.60;;;;;;;;;;5050964;28;20091;-66
2021/12/19 11:17:21;;;;;;;12.27;6.70;;;;;;;;;;5051622;28;20009;-67
2021/12/19 11:19:47;;;;;;;13.45;6.45;;;;;;;;;;5050971;28;20028;-66
2021/12/19 11:22:13;;;;;;;12.88;6.03;;;;;;;;;;5050883;28;20417;-67
2021/12/19 11:24:39;;;;;;;11.70;5.18;;;;;;;;;;5050938;28;20024;-66
2021/12/19 11:27:06;;;;;;;12.05;6.13;;;;;;;;;;5050829;28;20432;-67
2021/12/19 11:29:31;;;;;;;14.68;5.95;;;;;;;;;;5050611;28;20021;-67
2021/12/19 11:31:59;;;;;;;13.63;5.78;;;;;;;;;;5050598;28;20024;-67
2021/12/19 11:34:31;;;;;;;12.18;6.03;;;;;;;;;;5050537;28;20009;-66
2021/12/19 11:37:00;;;;;;;10.27;5.18;;;;;;;;;;5050599;28;20021;-67
2021/12/19 11:39:36;;;;;;;10.75;5.75;;;;;;;;;;5050564;28;20078;-67
2021/12/19 11:42:28;;;;;;;14.23;5.93;;;;;;;;;;5050371;28;20017;-67
2021/12/19 11:48:03;;;;;;;9.18;5.15;;;;;;;;;;5028059;28;20413;-67
2021/12/19 11:50:30;;;;;;;9.75;4.32;;;;;;;;;;5046844;28;20057;-66
2021/12/19 11:52:57;;;;;;;13.88;5.82;;;;;;;;;;5050541;28;20099;-67
2021/12/19 11:55:24;;;;;;;10.05;5.38;;;;;;;;;;5050538;28;20359;-67
2021/12/19 11:58:08;;;;;;;11.85;5.47;;;;;;;;;;5050290;28;20040;-67
2021/12/19 12:00:40;;;;;;;13.45;6.47;;;;;;;;;;5049848;28;20427;-66
2021/12/19 12:03:11;;;;;;;13.02;4.97;;;;;;;;;;5050492;28;20052;-66
2021/12/19 12:05:43;;;;;;;10.50;5.53;;;;;;;;;;5050368;28;20408;-67
2021/12/19 12:08:09;;;;;;;7.50;5.32;;;;;;;;;;5049971;28;20377;-67
2021/12/19 12:10:54;;;;;;;11.02;4.75;;;;;;;;;;5042279;28;20024;-67
2021/12/19 12:13:32;;;;;;;9.35;5.10;;;;;;;;;;5048630;28;20024;-66
2021/12/19 12:16:09;;;;;;;10.50;5.28;;;;;;;;;;5050645;28;20028;-68
2021/12/19 12:18:35;;;;;;;7.88;4.97;;;;;;;;;;5050354;28;20025;-67
2021/12/19 12:21:24;;;;;;;11.20;5.50;;;;;;;;;;5049809;28;20013;-68
2021/12/19 12:23:54;;;;;;;11.57;4.80;;;;;;;;;;5050289;28;20469;-67
2021/12/19 12:26:20;;;;;;;;;;;;;;;;;;5050691;28;20021;-68
2021/12/19 12:28:45;;;;;;;11.15;5.55;;;;;;;;;;5050255;28;19955;-67
2021/12/19 12:31:10;;;;;;;13.43;5.68;;;;;;;;;;5050057;28;20012;-65
2021/12/19 12:33:37;;;;;;;14.38;6.57;;;;;;;;;;5049709;28;20060;-66
2021/12/19 12:36:02;;;;;;;9.10;5.13;;;;;;;;;;5049829;28;20032;-66
2021/12/19 12:38:28;;;;;;;10.30;5.15;;;;;;;;;;5049796;28;20025;-65
2021/12/19 12:40:57;;;;;;;9.25;5.20;;;;;;;;;;5049702;28;20017;-66
2021/12/19 12:43:26;;;;;;;9.98;4.38;;;;;;;;;;5050085;28;20017;-66
2021/12/19 12:46:03;;;;;;;12.88;6.70;;;;;;;;;;5049821;28;20143;-66
2021/12/19 12:48:33;;;;;;;12.15;5.32;;;;;;;;;;5050058;28;20021;-66
2021/12/19 12:50:58;;;;;;;;;;;;;;;;;;5050828;28;20021;-65
2021/12/19 12:53:35;;;;;;;11.70;5.95;;;;;;;;;;5035694;28;19919;-66
2021/12/19 12:56:06;;;;;;;12.10;5.50;;;;;;;;;;5053711;28;20255;-66
2021/12/19 12:58:39;;;;;;;10.02;5.38;;;;;;;;;;5053379;28;20048;-66
2021/12/19 13:01:11;;;;;;;11.85;5.10;;;;;;;;;;5053470;28;20041;-66
2021/12/19 13:03:37;;;;;;;13.77;5.22;;;;;;;;;;5053932;28;20078;-66
2021/12/19 13:06:02;;;;;;;10.05;5.40;;;;;;;;;;5053755;28;20385;-66
2021/12/19 13:08:28;;;;;;;8.82;4.80;;;;;;;;;;5053518;28;20485;-66
2021/12/19 13:10:53;;;;;;;9.38;4.38;;;;;;;;;;5035331;28;20488;-66
2021/12/19 13:13:18;;;;;;;9.80;4.78;;;;;;;;;;5053740;28;20530;-65
2021/12/19 13:15:44;;;;;;;6.80;3.70;;;;;;;;;;5053591;28;20100;-65
2021/12/19 13:18:09;;;;;;;7.55;4.05;;;;;;;;;;5053341;28;20100;-65
2021/12/19 13:20:36;;;;;;;7.25;3.78;;;;;;;;;;5035486;28;20061;-65
2021/12/19 13:23:03;;;;;;;7.53;3.38;;;;;;;;;;5033335;28;20025;-66
2021/12/19 13:25:38;;;;;;;8.45;3.90;;;;;;;;;;5033314;28;20029;-66
2021/12/19 13:28:05;;;;;;;8.10;3.72;;;;;;;;;;5033345;28;20107;-66
2021/12/19 13:30:32;;;;;;;6.70;3.45;;;;;;;;;;5033036;28;20036;-66
2021/12/19 13:32:58;;;;;;;10.15;3.97;;;;;;;;;;5038327;28;20489;-66
2021/12/19 13:35:26;;;;;;;9.48;4.90;;;;;;;;;;5053015;28;20039;-65
2021/12/19 13:37:56;;;;;;;8.18;3.60;;;;;;;;;;5052993;28;20115;-66
2021/12/19 13:40:23;;;;;;;6.57;2.72;;;;;;;;;;5052715;28;20500;-66
2021/12/19 13:42:48;;;;;;;9.60;4.45;;;;;;;;;;5052832;28;20090;-66
2021/12/19 13:45:19;;;;;;;7.90;4.28;;;;;;;;;;5052703;28;20021;-66
2021/12/19 13:47:46;;;;;;;8.55;4.47;;;;;;;;;;5052656;28;20028;-66
2021/12/19 13:50:11;;;;;;;11.32;4.35;;;;;;;;;;5052246;28;20029;-65
2021/12/19 13:52:36;;;;;;;7.78;4.05;;;;;;;;;;5052772;28;20078;-66
2021/12/19 13:55:09;;;;;;;7.18;3.40;;;;;;;;;;5052439;28;20024;-66
2021/12/19 13:57:35;;;;;;;6.85;4.10;;;;;;;;;;5053048;28;20017;-66
2021/12/19 14:00:01;;;;;;;7.28;3.88;;;;;;;;;;5051910;28;20373;-66
2021/12/19 14:02:26;;;;;;;6.00;3.83;;;;;;;;;;5049514;28;20432;-67
2021/12/19 14:04:51;;;;;;;8.73;4.80;;;;;;;;;;5052190;28;20461;-66
2021/12/19 14:07:17;;;;;;;6.93;4.30;;;;;;;;;;5052414;28;20029;-66
2021/12/19 14:09:44;;;;;;;7.05;3.65;;;;;;;;;;5052553;28;20263;-66
2021/12/19 14:12:51;;;;;;;8.32;4.15;;;;;;;;;;5052119;28;20440;-65
2021/12/19 14:15:11;;;;;;;6.40;3.92;;;;;;;;;;5051141;28;20024;-66
2021/12/19 14:17:36;;;;;;;6.80;3.47;;;;;;;;;;5052556;28;20021;-66
2021/12/19 14:20:03;;;;;;;7.18;3.47;;;;;;;;;;5052422;28;20378;-65
2021/12/19 14:22:28;;;;;;;7.55;3.40;;;;;;;;;;5052112;28;20027;-65
2021/12/19 14:24:53;;;;;;;13.27;5.65;;;;;;;;;;5052046;28;20025;-66
2021/12/19 14:27:26;;;;;;;7.55;4.20;;;;;;;;;;5052294;28;20025;-65
2021/12/19 14:29:54;;;;;;;9.32;3.85;;;;;;;;;;5051962;28;20263;-66
2021/12/19 14:32:21;;;;;;;8.43;4.13;;;;;;;;;;5051349;28;20044;-66
2021/12/19 14:34:49;;;;;;;9.48;4.43;;;;;;;;;;5051989;28;20539;-66
2021/12/19 14:37:14;;;;;;;5.60;3.00;;;;;;;;;;5051904;28;20120;-66
2021/12/19 14:39:39;;;;;;;5.35;2.83;;;;;;;;;;5051861;28;20096;-67
2021/12/19 14:42:07;;;;;;;7.65;3.08;;;;;;;;;;5051478;28;20650;-66
2021/12/19 14:44:32;;;;;;;7.75;3.38;;;;;;;;;;5051654;28;20024;-66
2021/12/19 14:46:57;;;;;;;5.47;3.00;;;;;;;;;;5033644;28;20021;-66
2021/12/19 14:49:23;;;;;;;4.87;2.87;;;;;;;;;;5051718;28;20538;-65
2021/12/19 14:51:56;;;;;;;5.13;2.57;;;;;;;;;;5033501;28;20282;-66
2021/12/19 14:54:25;;;;;;;6.20;2.33;;;;;;;;;;5051696;28;20254;-66
2021/12/19 14:56:51;;;;;;;3.90;1.98;;;;;;;;;;5051608;28;20017;-65
2021/12/19 14:59:17;;;;;;;8.40;1.77;;;;;;;;;;5051491;28;20024;-66
2021/12/19 15:01:42;;;;;;;6.22;2.60;;;;;;;;;;5051043;28;20259;-66
2021/12/19 15:04:09;;;;;;;5.97;2.78;;;;;;;;;;5049762;28;20070;-66
2021/12/19 15:06:39;;;;;;;4.63;2.13;;;;;;;;;;5051299;28;20017;-66
2021/12/19 15:09:07;;;;;;;4.55;2.35;;;;;;;;;;5051212;28;20586;-66
2021/12/19 15:11:33;;;;;;;7.30;2.85;;;;;;;;;;5051081;28;20044;-65
2021/12/19 15:13:58;;;;;;;10.10;4.63;;;;;;;;;;5050803;28;20131;-65
2021/12/19 15:16:23;;;;;;;10.80;3.50;;;;;;;;;;5051190;28;20533;-65
2021/12/19 15:18:48;;;;;;;12.77;4.70;;;;;;;;;;5050285;28;20009;-66
2021/12/19 15:21:15;;;;;;;11.02;5.07;;;;;;;;;;5050835;28;20044;-65
2021/12/19 15:23:43;;;;;;;13.32;5.88;;;;;;;;;;5051142;28;20033;-66
2021/12/19 15:26:15;;;;;;;12.57;6.05;;;;;;;;;;5050958;28;20426;-65
2021/12/19 15:28:42;;;;;;;13.48;6.72;;;;;;;;;;5050904;28;20025;-66
2021/12/19 15:31:08;;;;;;;15.38;7.10;;;;;;;;;;5050515;28;20025;-66
2021/12/19 15:33:33;;;;;;;20.30;9.85;;;;;;;;;;5050942;28;20029;-66
2021/12/19 15:35:58;;;;;;;20.23;9.15;;;;;;;;;;5049228;28;20401;-66
2021/12/19 15:38:23;;;;;;;17.88;8.60;;;;;;;;;;5051274;28;20044;-66
2021/12/19 15:40:48;;;;;;;23.13;10.07;;;;;;;;;;5050713;28;20025;-65